createdAt,value
2022-07-26T00:01:20.723Z,81.09
2022-07-26T00:03:49.339Z,81.11
2022-07-26T00:06:16.121Z,80.89
2022-07-26T00:08:45.704Z,81.85
2022-07-26T00:11:12.557Z,82.00
2022-07-26T00:13:39.740Z,81.92
2022-07-26T00:16:06.607Z,84.32
2022-07-26T00:18:33.548Z,83.93
2022-07-26T00:21:00.084Z,84.86
2022-07-26T00:23:27.618Z,84.04
2022-07-26T00:25:54.132Z,83.68
2022-07-26T00:28:20.636Z,85.54
2022-07-26T00:30:47.231Z,86.98
2022-07-26T00:33:13.772Z,86.74
2022-07-26T00:35:40.383Z,85.68
2022-07-26T00:38:06.968Z,87.11
2022-07-26T00:40:34.385Z,86.55
2022-07-26T00:43:00.915Z,88.93
2022-07-26T00:45:27.406Z,88.31
2022-07-26T00:47:53.981Z,88.79
2022-07-26T00:50:20.504Z,89.87
2022-07-26T00:52:49.356Z,88.32
2022-07-26T00:55:16.977Z,90.56
2022-07-26T00:57:44.772Z,90.85
2022-07-26T01:00:15.131Z,91.16
2022-07-26T01:02:41.899Z,90.09
2022-07-26T01:05:08.908Z,91.78
2022-07-26T01:07:37.216Z,91.91
2022-07-26T01:10:06.889Z,93.09
2022-07-26T01:12:33.436Z,93.83
2022-07-26T01:14:59.940Z,93.48
2022-07-26T01:17:26.461Z,94.24
2022-07-26T01:19:52.944Z,95.61
2022-07-26T01:22:19.492Z,93.32
2022-07-26T01:24:45.984Z,95.76
2022-07-26T01:27:12.463Z,94.90
2022-07-26T01:29:39.096Z,95.51
2022-07-26T01:32:06.142Z,95.71
2022-07-26T01:34:32.973Z,95.18
2022-07-26T01:36:59.665Z,95.58
2022-07-26T01:39:26.585Z,95.70
2022-07-26T01:41:54.290Z,94.33
2022-07-26T01:44:20.824Z,94.78
2022-07-26T01:46:47.339Z,95.62
2022-07-26T01:49:14.109Z,94.89
2022-07-26T01:51:40.884Z,95.57
2022-07-26T01:54:07.833Z,95.36
2022-07-26T01:56:35.012Z,95.27
2022-07-26T01:59:01.772Z,95.74
2022-07-26T02:01:38.236Z,96.03
2022-07-26T02:04:29.650Z,96.61
2022-07-26T02:06:56.179Z,96.97
2022-07-26T02:09:22.681Z,97.24
2022-07-26T02:11:49.261Z,97.20
2022-07-26T02:14:25.759Z,96.33
2022-07-26T02:16:59.676Z,97.79
2022-07-26T02:19:28.803Z,97.25
2022-07-26T02:21:55.867Z,98.00
2022-07-26T02:24:22.585Z,97.86
2022-07-26T02:26:49.154Z,98.07
2022-07-26T02:29:15.772Z,98.51
2022-07-26T02:31:42.323Z,98.80
2022-07-26T02:34:15.169Z,98.60
2022-07-26T02:36:41.749Z,100.00
2022-07-26T02:39:08.330Z,98.92
2022-07-26T02:41:34.874Z,99.15
2022-07-26T02:44:01.582Z,99.21
2022-07-26T02:46:28.139Z,99.68
2022-07-26T02:48:54.812Z,99.58
2022-07-26T02:51:21.422Z,99.99
2022-07-26T02:53:47.965Z,100.00
2022-07-26T02:56:14.511Z,99.80
2022-07-26T02:58:41.093Z,100.00
2022-07-26T03:01:08.057Z,99.78
2022-07-26T03:03:36.662Z,100.00
2022-07-26T03:06:05.017Z,100.00
2022-07-26T03:08:31.669Z,100.00
2022-07-26T03:10:58.236Z,100.00
2022-07-26T03:13:24.775Z,100.00
2022-07-26T03:15:51.347Z,100.00
2022-07-26T03:18:17.916Z,100.00
2022-07-26T03:20:44.644Z,100.00
2022-07-26T03:23:11.187Z,100.00
2022-07-26T03:25:38.416Z,100.00
2022-07-26T03:28:05.243Z,100.00
2022-07-26T03:30:31.913Z,100.00
2022-07-26T03:32:58.738Z,100.00
2022-07-26T03:35:25.825Z,100.00
2022-07-26T03:37:52.513Z,100.00
2022-07-26T03:40:19.643Z,100.00
2022-07-26T03:42:47.373Z,100.00
2022-07-26T03:45:15.688Z,100.00
2022-07-26T03:47:43.267Z,100.00
2022-07-26T03:50:11.117Z,100.00
2022-07-26T03:52:37.958Z,100.00
2022-07-26T03:55:24.912Z,100.00
2022-07-26T03:57:51.474Z,100.00
2022-07-26T04:00:18.243Z,100.00
2022-07-26T04:02:44.850Z,100.00
2022-07-26T04:05:11.428Z,100.00
2022-07-26T04:07:52.663Z,100.00
2022-07-26T04:10:20.423Z,100.00
2022-07-26T04:12:46.905Z,100.00
2022-07-26T04:15:13.475Z,100.00
2022-07-26T04:17:41.114Z,100.00
2022-07-26T04:20:10.453Z,100.00
2022-07-26T04:22:38.645Z,100.00
2022-07-26T04:25:06.758Z,100.00
2022-07-26T04:27:33.633Z,100.00
2022-07-26T04:30:00.522Z,100.00
2022-07-26T04:32:27.132Z,100.00
2022-07-26T04:34:53.743Z,100.00
2022-07-26T04:37:20.344Z,100.00
2022-07-26T04:39:50.427Z,100.00
2022-07-26T04:42:19.584Z,100.00
2022-07-26T04:44:46.111Z,100.00
2022-07-26T04:47:12.592Z,100.00
2022-07-26T04:49:40.624Z,100.00
2022-07-26T04:52:07.171Z,100.00
2022-07-26T04:54:33.687Z,100.00
2022-07-26T04:57:00.194Z,100.00
2022-07-26T04:59:26.703Z,100.00
2022-07-26T05:01:53.225Z,100.00
2022-07-26T05:04:19.718Z,100.00
2022-07-26T05:06:46.300Z,100.00
2022-07-26T05:09:12.789Z,100.00
2022-07-26T05:11:39.319Z,100.00
2022-07-26T05:14:06.094Z,100.00
2022-07-26T05:16:33.147Z,100.00
2022-07-26T05:19:00.125Z,100.00
2022-07-26T05:21:28.041Z,100.00
2022-07-26T05:23:55.541Z,100.00
2022-07-26T05:26:22.125Z,100.00
2022-07-26T05:28:48.691Z,100.00
2022-07-26T05:31:15.269Z,100.00
2022-07-26T05:33:42.114Z,100.00
2022-07-26T05:36:09.434Z,100.00
2022-07-26T05:38:35.970Z,100.00
2022-07-26T05:41:02.675Z,100.00
2022-07-26T05:43:41.394Z,100.00
2022-07-26T05:46:09.801Z,100.00
2022-07-26T05:48:36.559Z,100.00
2022-07-26T05:51:03.215Z,100.00
2022-07-26T05:53:29.798Z,100.00
2022-07-26T05:55:56.318Z,100.00
2022-07-26T05:58:22.829Z,100.00
2022-07-26T06:00:49.345Z,100.00
2022-07-26T06:03:25.700Z,100.00
2022-07-26T06:05:55.292Z,100.00
2022-07-26T06:08:22.457Z,100.00
2022-07-26T06:10:49.929Z,100.00
2022-07-26T06:13:17.094Z,100.00
2022-07-26T06:15:45.206Z,100.00
2022-07-26T06:18:11.889Z,100.00
2022-07-26T06:20:40.343Z,100.00
2022-07-26T06:23:07.054Z,100.00
2022-07-26T06:25:34.419Z,100.00
2022-07-26T06:28:05.588Z,100.00
2022-07-26T06:30:32.147Z,100.00
2022-07-26T06:32:58.667Z,100.00
2022-07-26T06:35:25.437Z,100.00
2022-07-26T06:37:51.942Z,100.00
2022-07-26T06:40:18.436Z,100.00
2022-07-26T06:42:44.999Z,100.00
2022-07-26T06:45:11.525Z,100.00
2022-07-26T06:47:38.030Z,100.00
2022-07-26T06:50:05.426Z,100.00
2022-07-26T06:52:32.892Z,100.00
2022-07-26T06:55:00.346Z,100.00
2022-07-26T06:57:27.186Z,100.00
2022-07-26T06:59:54.015Z,100.00
2022-07-26T07:02:21.014Z,100.00
2022-07-26T07:04:47.619Z,100.00
2022-07-26T07:07:14.222Z,100.00
2022-07-26T07:09:41.257Z,100.00
2022-07-26T07:12:09.790Z,100.00
2022-07-26T07:14:38.117Z,100.00
2022-07-26T07:17:11.184Z,100.00
2022-07-26T07:19:40.733Z,100.00
2022-07-26T07:22:11.605Z,100.00
2022-07-26T07:24:38.866Z,100.00
2022-07-26T07:27:05.951Z,100.00
2022-07-26T07:29:33.439Z,100.00
2022-07-26T07:32:00.428Z,100.00
2022-07-26T07:34:30.137Z,100.00
2022-07-26T07:36:57.639Z,100.00
2022-07-26T07:39:24.281Z,100.00
2022-07-26T07:42:01.233Z,100.00
2022-07-26T07:44:27.829Z,100.00
2022-07-26T07:46:54.446Z,100.00
2022-07-26T07:49:22.200Z,100.00
2022-07-26T07:51:48.859Z,100.00
2022-07-26T07:54:16.107Z,100.00
2022-07-26T07:56:43.265Z,100.00
2022-07-26T07:59:10.681Z,100.00
2022-07-26T08:01:40.052Z,100.00
2022-07-26T08:04:08.225Z,100.00
2022-07-26T08:06:34.823Z,100.00
2022-07-26T08:09:01.392Z,100.00
2022-07-26T08:11:30.438Z,100.00
2022-07-26T08:13:57.063Z,100.00
2022-07-26T08:16:24.640Z,100.00
2022-07-26T08:18:57.088Z,100.00
2022-07-26T08:21:28.067Z,100.00
2022-07-26T08:23:56.872Z,100.00
2022-07-26T08:26:23.794Z,100.00
2022-07-26T08:28:59.921Z,100.00
2022-07-26T08:31:28.217Z,100.00
2022-07-26T08:33:54.946Z,100.00
2022-07-26T08:36:21.525Z,100.00
2022-07-26T08:38:48.611Z,98.44
2022-07-26T08:41:17.105Z,97.03
2022-07-26T08:43:53.138Z,99.79
2022-07-26T08:46:25.760Z,96.11
2022-07-26T08:48:53.754Z,96.12
2022-07-26T08:51:22.909Z,91.60
2022-07-26T08:53:53.426Z,91.49
2022-07-26T08:56:19.981Z,89.66
2022-07-26T08:58:46.514Z,88.91
2022-07-26T09:01:13.506Z,86.66
2022-07-26T09:03:44.332Z,87.69
2022-07-26T09:06:21.920Z,82.63
2022-07-26T09:08:53.046Z,83.70
2022-07-26T09:11:33.132Z,81.13
2022-07-26T09:14:05.113Z,82.74
2022-07-26T09:16:36.033Z,82.86
2022-07-26T09:19:18.988Z,83.97
2022-07-26T09:21:46.662Z,85.37
2022-07-26T09:24:29.127Z,85.88
2022-07-26T09:27:00.601Z,84.33
2022-07-26T09:29:29.027Z,84.53
2022-07-26T09:32:16.867Z,79.64
2022-07-26T09:34:52.657Z,77.98
2022-07-26T09:37:37.514Z,78.87
2022-07-26T09:40:08.267Z,77.86
2022-07-26T09:42:35.197Z,77.36
2022-07-26T09:45:02.483Z,77.68
2022-07-26T09:47:36.995Z,72.86
2022-07-26T09:50:15.854Z,72.80
2022-07-26T09:53:08.963Z,73.67
2022-07-26T09:55:57.178Z,73.81
2022-07-26T09:58:24.967Z,75.24
2022-07-26T10:00:51.788Z,75.30
2022-07-26T10:03:18.449Z,73.58
2022-07-26T10:05:45.062Z,75.03
2022-07-26T10:08:12.704Z,76.75
2022-07-26T10:10:46.486Z,77.70
2022-07-26T10:13:13.877Z,79.08
2022-07-26T10:15:46.866Z,80.91
2022-07-26T10:18:38.506Z,87.79
2022-07-26T10:21:30.506Z,88.94
2022-07-26T10:24:01.873Z,89.49
2022-07-26T10:26:31.347Z,93.27
2022-07-26T10:29:19.133Z,98.04
2022-07-26T10:32:08.031Z,99.93
2022-07-26T10:34:37.498Z,100.00
2022-07-26T10:37:07.625Z,100.00
2022-07-26T10:39:34.691Z,100.00
2022-07-26T10:42:09.979Z,100.00
2022-07-26T10:44:39.552Z,100.00
2022-07-26T10:47:09.079Z,100.00
2022-07-26T10:49:38.471Z,100.00
2022-07-26T10:52:20.232Z,100.00
2022-07-26T10:55:04.846Z,100.00
2022-07-26T10:57:34.314Z,100.00
2022-07-26T11:00:02.098Z,100.00
2022-07-26T11:02:32.504Z,100.00
2022-07-26T11:05:03.075Z,100.00
2022-07-26T11:07:30.065Z,100.00
2022-07-26T11:10:00.794Z,100.00
2022-07-26T11:12:27.581Z,100.00
2022-07-26T11:14:54.383Z,100.00
2022-07-26T11:17:29.354Z,100.00
2022-07-26T11:19:56.945Z,100.00
2022-07-26T11:22:31.968Z,100.00
2022-07-26T11:24:58.554Z,100.00
2022-07-26T11:27:25.092Z,100.00
2022-07-26T11:29:51.633Z,100.00
2022-07-26T11:32:25.116Z,100.00
2022-07-26T11:35:02.919Z,100.00
2022-07-26T11:37:29.915Z,97.51
2022-07-26T11:39:56.844Z,95.94
2022-07-26T11:42:23.428Z,93.68
2022-07-26T11:44:50.545Z,92.13
2022-07-26T11:47:25.564Z,88.14
2022-07-26T11:52:40.225Z,84.04
2022-07-26T11:55:07.494Z,82.11
2022-07-26T11:57:34.040Z,81.65
2022-07-26T12:00:01.527Z,78.12
2022-07-26T12:02:30.271Z,77.30
2022-07-26T12:05:19.248Z,71.84
2022-07-26T12:08:03.896Z,71.64
2022-07-26T12:10:30.627Z,67.67
2022-07-26T12:13:15.420Z,61.08
2022-07-26T12:15:50.628Z,62.18
2022-07-26T12:18:35.276Z,58.70
2022-07-26T12:21:07.436Z,60.51
2022-07-26T12:23:45.820Z,54.30
2022-07-26T12:26:30.662Z,51.37
2022-07-26T12:28:59.712Z,51.81
2022-07-26T12:31:31.056Z,50.73
2022-07-26T12:33:58.897Z,50.19
2022-07-26T12:36:27.713Z,50.22
2022-07-26T12:38:56.687Z,50.57
2022-07-26T12:41:33.314Z,50.39
2022-07-26T12:43:59.988Z,52.84
2022-07-26T12:46:26.734Z,51.98
2022-07-26T12:48:56.807Z,51.00
2022-07-26T12:51:26.722Z,51.30
2022-07-26T12:53:53.260Z,50.78
2022-07-26T12:56:19.734Z,49.87
2022-07-26T12:58:46.183Z,47.56
2022-07-26T13:01:12.972Z,47.91
2022-07-26T13:03:39.600Z,48.89
2022-07-26T13:06:06.726Z,51.28
2022-07-26T13:08:33.281Z,54.39
2022-07-26T13:11:00.268Z,54.33
2022-07-26T13:13:26.924Z,53.26
2022-07-26T13:15:53.427Z,52.71
2022-07-26T13:18:19.961Z,54.53
2022-07-26T13:20:46.466Z,54.36
2022-07-26T13:23:15.812Z,54.61
2022-07-26T13:25:48.601Z,53.76
2022-07-26T13:28:17.362Z,55.53
2022-07-26T13:30:45.080Z,55.14
2022-07-26T13:33:12.404Z,53.41
2022-07-26T13:35:41.331Z,52.58
2022-07-26T13:38:09.014Z,51.25
2022-07-26T13:40:36.118Z,49.38
2022-07-26T13:43:02.947Z,48.25
2022-07-26T13:45:29.847Z,47.40
2022-07-26T13:47:59.080Z,45.90
2022-07-26T13:50:27.332Z,44.55
2022-07-26T13:52:56.210Z,43.95
2022-07-26T13:55:23.227Z,42.84
2022-07-26T13:57:55.978Z,42.48
2022-07-26T14:00:24.548Z,44.71
2022-07-26T14:02:51.169Z,45.49
2022-07-26T14:05:18.743Z,48.00
2022-07-26T14:07:45.553Z,49.87
2022-07-26T14:10:12.096Z,51.15
2022-07-26T14:12:38.735Z,52.41
2022-07-26T14:15:12.010Z,52.35
2022-07-26T14:17:40.648Z,52.80
2022-07-26T14:20:07.872Z,52.15
2022-07-26T14:22:34.353Z,52.39
2022-07-26T14:25:00.921Z,52.03
2022-07-26T14:27:27.618Z,50.76
2022-07-26T14:29:54.167Z,50.69
2022-07-26T14:32:22.142Z,50.97
2022-07-26T14:34:49.554Z,51.76
2022-07-26T14:37:44.158Z,52.40
2022-07-26T14:40:04.851Z,52.28
2022-07-26T14:42:31.382Z,53.04
2022-07-26T14:44:57.930Z,53.04
2022-07-26T14:47:24.499Z,54.46
2022-07-26T14:49:51.062Z,54.76
2022-07-26T14:52:17.656Z,55.08
2022-07-26T14:54:44.230Z,55.43
2022-07-26T14:57:10.740Z,56.30
2022-07-26T14:59:37.251Z,57.43
2022-07-26T15:02:05.850Z,57.58
2022-07-26T15:04:32.868Z,57.23
2022-07-26T15:06:59.796Z,58.43
2022-07-26T15:09:26.316Z,57.24
2022-07-26T15:11:53.098Z,58.00
2022-07-26T15:14:19.673Z,57.59
2022-07-26T15:16:46.439Z,57.88
2022-07-26T15:19:13.013Z,57.33
2022-07-26T15:21:39.664Z,56.43
2022-07-26T15:24:06.553Z,56.88
2022-07-26T15:26:33.137Z,57.17
2022-07-26T15:28:59.717Z,56.71
2022-07-26T15:31:37.168Z,57.86
2022-07-26T15:34:07.550Z,57.22
2022-07-26T15:36:34.579Z,57.68
2022-07-26T15:39:14.716Z,57.69
2022-07-26T15:41:43.764Z,57.46
2022-07-26T15:44:12.255Z,57.23
2022-07-26T15:46:39.900Z,59.39
2022-07-26T15:49:07.549Z,59.28
2022-07-26T15:51:34.389Z,60.54
2022-07-26T15:54:03.052Z,60.58
2022-07-26T15:56:29.949Z,61.14
2022-07-26T15:58:56.610Z,61.42
2022-07-26T16:01:23.326Z,61.94
2022-07-26T16:03:50.565Z,63.79
2022-07-26T16:06:18.223Z,65.11
2022-07-26T16:09:05.937Z,66.47
2022-07-26T16:11:31.822Z,65.84
2022-07-26T16:14:00.922Z,67.49
2022-07-26T16:16:29.337Z,67.00
2022-07-26T16:18:56.028Z,68.09
2022-07-26T16:21:22.561Z,68.02
2022-07-26T16:23:50.822Z,67.75
2022-07-26T16:26:17.922Z,68.07
2022-07-26T16:28:44.533Z,68.33
2022-07-26T16:31:11.156Z,70.35
2022-07-26T16:33:37.851Z,72.89
2022-07-26T16:36:12.442Z,78.08
2022-07-26T16:38:39.010Z,80.31
2022-07-26T16:41:07.371Z,88.10
2022-07-26T16:43:34.596Z,89.53
2022-07-26T16:46:01.498Z,88.92
2022-07-26T16:48:28.185Z,90.65
2022-07-26T16:50:54.829Z,94.40
2022-07-26T16:53:21.430Z,97.37
2022-07-26T16:55:49.694Z,100.00
2022-07-26T16:58:16.575Z,100.00
2022-07-26T17:00:43.476Z,100.00
2022-07-26T17:03:10.237Z,100.00
2022-07-26T17:05:36.829Z,100.00
2022-07-26T17:08:03.493Z,100.00
2022-07-26T17:10:30.056Z,100.00
2022-07-26T17:12:56.618Z,99.96
2022-07-26T17:15:23.138Z,99.34
2022-07-26T17:17:49.796Z,98.40
2022-07-26T17:20:16.936Z,95.21
2022-07-26T17:22:43.511Z,93.51
2022-07-26T17:25:10.240Z,93.20
2022-07-26T17:27:36.963Z,95.67
2022-07-26T17:30:07.092Z,93.82
2022-07-26T17:32:34.380Z,94.57
2022-07-26T17:35:01.057Z,97.86
2022-07-26T17:37:27.658Z,95.46
2022-07-26T17:39:55.333Z,95.68
2022-07-26T17:42:24.289Z,92.87
2022-07-26T17:44:51.208Z,93.23
2022-07-26T17:47:29.089Z,96.02
2022-07-26T17:50:08.925Z,92.57
2022-07-26T17:52:45.315Z,92.33
2022-07-26T17:55:12.027Z,92.27
2022-07-26T17:57:38.589Z,93.25
2022-07-26T18:00:06.715Z,93.98
2022-07-26T18:02:33.525Z,95.44
2022-07-26T18:05:00.269Z,95.18
2022-07-26T18:07:27.095Z,94.89
2022-07-26T18:09:53.585Z,96.03
2022-07-26T18:12:20.372Z,96.04
2022-07-26T18:14:46.884Z,97.34
2022-07-26T18:17:13.427Z,96.54
2022-07-26T18:19:40.006Z,97.37
2022-07-26T18:22:06.598Z,96.55
2022-07-26T18:24:33.220Z,96.63
2022-07-26T18:26:59.760Z,97.08
2022-07-26T18:29:26.340Z,97.72
2022-07-26T18:31:52.927Z,95.26
2022-07-26T18:34:19.522Z,93.74
2022-07-26T18:36:46.113Z,92.40
2022-07-26T18:39:13.051Z,92.84
2022-07-26T18:41:39.809Z,92.33
2022-07-26T18:44:06.345Z,93.77
2022-07-26T18:46:33.684Z,96.43
2022-07-26T18:49:00.614Z,96.54
2022-07-26T18:51:29.188Z,97.96
2022-07-26T18:53:58.277Z,99.16
2022-07-26T18:56:24.913Z,100.00
2022-07-26T18:58:51.514Z,99.19
2022-07-26T19:01:18.268Z,100.00
2022-07-26T19:03:44.910Z,97.91
2022-07-26T19:06:13.076Z,95.53
2022-07-26T19:08:39.664Z,93.48
2022-07-26T19:11:06.333Z,91.00
2022-07-26T19:13:32.915Z,88.42
2022-07-26T19:15:59.462Z,86.04
2022-07-26T19:18:25.984Z,84.16
2022-07-26T19:20:52.476Z,83.61
2022-07-26T19:23:19.072Z,81.97
2022-07-26T19:25:46.387Z,82.63
2022-07-26T19:28:13.787Z,82.55
2022-07-26T19:30:40.494Z,82.36
2022-07-26T19:33:07.268Z,82.77
2022-07-26T19:35:33.747Z,84.29
2022-07-26T19:38:00.403Z,84.64
2022-07-26T19:40:27.031Z,83.67
2022-07-26T19:42:53.585Z,83.27
2022-07-26T19:45:20.127Z,82.29
2022-07-26T19:47:46.735Z,80.95
2022-07-26T19:50:13.512Z,80.85
2022-07-26T19:52:40.790Z,80.64
2022-07-26T19:55:08.189Z,79.33
2022-07-26T19:57:34.817Z,79.25
2022-07-26T20:00:03.013Z,78.68
2022-07-26T20:02:29.772Z,79.27
2022-07-26T20:04:56.366Z,80.12
2022-07-26T20:07:22.939Z,78.90
2022-07-26T20:09:50.589Z,77.66
2022-07-26T20:12:18.542Z,77.94
2022-07-26T20:14:45.381Z,78.60
2022-07-26T20:17:13.262Z,78.53
2022-07-26T20:19:40.457Z,78.06
2022-07-26T20:22:07.071Z,77.72
2022-07-26T20:24:34.433Z,77.91
2022-07-26T20:27:00.919Z,77.18
2022-07-26T20:29:27.564Z,75.95
2022-07-26T20:31:54.095Z,74.46
2022-07-26T20:34:20.596Z,72.98
2022-07-26T20:36:47.305Z,72.02
2022-07-26T20:39:15.055Z,71.52
2022-07-26T20:41:41.794Z,71.13
2022-07-26T20:44:08.432Z,71.61
2022-07-26T20:46:39.994Z,72.64
2022-07-26T20:49:08.022Z,73.58
2022-07-26T20:51:34.808Z,73.99
2022-07-26T20:54:01.418Z,73.51
2022-07-26T20:56:29.123Z,72.06
2022-07-26T20:58:55.689Z,71.32
2022-07-26T21:01:22.470Z,69.50
2022-07-26T21:03:48.983Z,69.13
2022-07-26T21:06:15.679Z,68.64
2022-07-26T21:08:42.201Z,69.41
2022-07-26T21:11:08.690Z,69.77
2022-07-26T21:13:35.199Z,70.58
2022-07-26T21:16:01.801Z,69.26
2022-07-26T21:18:32.669Z,68.69
2022-07-26T21:21:01.652Z,67.77
2022-07-26T21:23:28.212Z,67.07
2022-07-26T21:25:58.096Z,67.13
2022-07-26T21:28:27.300Z,67.18
2022-07-26T21:30:54.143Z,67.80
2022-07-26T21:33:20.869Z,67.32
2022-07-26T21:35:47.381Z,66.78
2022-07-26T21:38:14.077Z,67.05
2022-07-26T21:40:40.632Z,67.67
2022-07-26T21:43:07.249Z,68.27
2022-07-26T21:45:33.876Z,68.56
2022-07-26T21:48:00.481Z,67.81
2022-07-26T21:50:27.847Z,68.20
2022-07-26T21:52:54.329Z,67.60
2022-07-26T21:55:20.937Z,66.93
2022-07-26T21:57:47.988Z,66.95
2022-07-26T22:00:16.275Z,67.39
2022-07-26T22:02:42.845Z,66.14
2022-07-26T22:05:28.167Z,66.08
2022-07-26T22:07:55.140Z,66.06
2022-07-26T22:10:21.809Z,66.16
2022-07-26T22:12:48.295Z,66.57
2022-07-26T22:15:14.837Z,66.25
2022-07-26T22:17:41.505Z,66.44
2022-07-26T22:20:09.071Z,66.63
2022-07-26T22:22:36.686Z,66.93
2022-07-26T22:25:04.768Z,66.86
2022-07-26T22:27:31.300Z,67.37
2022-07-26T22:29:57.801Z,67.79
2022-07-26T22:32:24.415Z,68.28
2022-07-26T22:34:50.910Z,68.61
2022-07-26T22:37:17.488Z,69.03
2022-07-26T22:39:44.021Z,69.66
2022-07-26T22:42:15.786Z,70.25
2022-07-26T22:44:42.893Z,70.90
2022-07-26T22:47:09.410Z,70.75
2022-07-26T22:49:36.028Z,70.98
2022-07-26T22:52:02.662Z,71.58
2022-07-26T22:54:29.230Z,72.20
2022-07-26T22:56:55.920Z,71.70
2022-07-26T22:59:22.794Z,72.75
2022-07-26T23:01:49.370Z,72.90
2022-07-26T23:04:16.098Z,73.02
2022-07-26T23:06:43.002Z,73.05
2022-07-26T23:09:11.508Z,74.11
2022-07-26T23:11:38.373Z,73.23
2022-07-26T23:14:05.083Z,74.59
2022-07-26T23:16:31.787Z,73.85
2022-07-26T23:18:58.359Z,74.61
2022-07-26T23:21:25.320Z,74.81
2022-07-26T23:23:51.810Z,74.49
2022-07-26T23:26:18.306Z,74.96
2022-07-26T23:28:44.791Z,74.94
2022-07-26T23:31:14.352Z,75.31
2022-07-26T23:33:53.326Z,75.49
2022-07-26T23:36:30.105Z,75.68
2022-07-26T23:38:58.967Z,76.88
2022-07-26T23:41:26.666Z,76.51
2022-07-26T23:43:54.434Z,76.70
2022-07-26T23:46:21.743Z,77.82
2022-07-26T23:48:48.466Z,78.35
2022-07-26T23:51:15.367Z,78.19
2022-07-26T23:53:42.063Z,78.66
2022-07-26T23:56:08.706Z,79.29
2022-07-26T23:58:35.292Z,81.04
